Time;durP1;ratioP1;P1;durP2;ratioP2;P2;SDS_P1;SDS_P2;PMS_P1;PMS_P2;Temp;Humidity;BMP_temperature;BMP_pressure;BME280_temperature;BME280_humidity;BME280_pressure;Samples;Min_cycle;Max_cycle;Signal;HPM_P1;HPM_P2
2024/01/21 00:02:24;;;;;;;13.85;5.88;;;-0.90;99.90;;;;;;5046049;28;20061;-74
2024/01/21 00:04:49;;;;;;;16.05;6.88;;;-0.90;99.90;;;;;;5049767;28;20106;-75
2024/01/21 00:07:15;;;;;;;14.80;6.88;;;-1.00;99.90;;;;;;5049947;28;20027;-74
2024/01/21 00:09:41;;;;;;;15.00;6.07;;;-0.90;99.90;;;;;;5049145;28;20044;-74
2024/01/21 00:12:06;;;;;;;16.33;6.03;;;-1.00;99.90;;;;;;5045366;28;20032;-74
2024/01/21 00:14:32;;;;;;;17.17;6.70;;;-0.90;99.90;;;;;;5044250;28;20124;-74
2024/01/21 00:16:58;;;;;;;12.25;5.65;;;-0.90;99.90;;;;;;5056441;28;20059;-74
2024/01/21 00:19:23;;;;;;;17.55;5.57;;;-0.90;99.90;;;;;;5045766;28;20041;-74
2024/01/21 00:21:49;;;;;;;12.85;6.15;;;-1.00;99.90;;;;;;5049161;28;20033;-75
2024/01/21 00:24:14;;;;;;;12.93;5.63;;;-1.00;99.90;;;;;;5057066;28;20029;-75
2024/01/21 00:26:40;;;;;;;15.18;5.72;;;-1.00;99.90;;;;;;5047184;28;20039;-75
2024/01/21 00:29:06;;;;;;;15.23;5.50;;;-1.00;99.90;;;;;;5048413;28;20367;-75
2024/01/21 00:31:31;;;;;;;11.40;4.90;;;-1.00;99.90;;;;;;5040607;28;20139;-75
2024/01/21 00:33:57;;;;;;;11.80;4.88;;;-1.10;99.90;;;;;;5057610;28;20037;-75
2024/01/21 00:36:22;;;;;;;11.35;4.95;;;-1.10;99.90;;;;;;5043784;28;20025;-74
2024/01/21 00:38:50;;;;;;;13.60;5.93;;;-1.10;99.90;;;;;;5049385;28;20039;-74
2024/01/21 00:41:16;;;;;;;9.77;4.70;;;-1.10;99.90;;;;;;5041664;28;20036;-75
2024/01/21 00:43:42;;;;;;;11.70;5.72;;;-1.10;99.90;;;;;;5043352;28;20045;-75
2024/01/21 00:46:07;;;;;;;14.35;5.65;;;-1.10;99.90;;;;;;5052283;28;20029;-75
2024/01/21 00:48:34;;;;;;;10.43;5.47;;;-1.10;99.90;;;;;;5053587;28;20047;-75
2024/01/21 00:51:00;;;;;;;12.32;4.72;;;-1.10;99.90;;;;;;5053676;28;20029;-76
2024/01/21 00:53:26;;;;;;;10.82;5.30;;;-1.10;99.90;;;;;;5061686;28;20094;-75
2024/01/21 00:55:51;;;;;;;11.57;5.00;;;-1.10;99.90;;;;;;5057240;28;20040;-75
2024/01/21 00:58:17;;;;;;;13.00;5.22;;;-1.10;99.90;;;;;;5065843;28;20380;-75
2024/01/21 01:00:43;;;;;;;11.57;5.30;;;-1.20;99.90;;;;;;5045989;28;20112;-76
2024/01/21 01:03:11;;;;;;;13.93;4.85;;;-1.20;99.90;;;;;;5048057;28;20021;-75
2024/01/21 01:05:37;;;;;;;12.02;5.63;;;-1.20;99.90;;;;;;5058817;28;20056;-73
2024/01/21 01:08:06;;;;;;;13.23;5.20;;;-1.30;99.90;;;;;;5050036;28;20064;-73
2024/01/21 01:10:31;;;;;;;10.60;5.10;;;-1.30;99.90;;;;;;5061866;28;20120;-73
2024/01/21 01:12:58;;;;;;;12.73;5.47;;;-1.30;99.90;;;;;;5046533;28;20103;-73
2024/01/21 01:15:23;;;;;;;13.80;5.63;;;-1.40;99.90;;;;;;5054699;28;20033;-73
2024/01/21 01:17:51;;;;;;;13.63;5.13;;;-1.40;99.90;;;;;;5053489;28;20389;-74
2024/01/21 01:20:17;;;;;;;10.90;5.18;;;-1.40;99.90;;;;;;5054775;28;20033;-73
2024/01/21 01:22:43;;;;;;;10.77;4.75;;;-1.40;99.90;;;;;;5047691;28;20028;-74
2024/01/21 01:25:09;;;;;;;10.00;4.47;;;-1.40;99.90;;;;;;5048684;28;20032;-73
2024/01/21 01:27:34;;;;;;;13.93;5.22;;;-1.40;99.90;;;;;;5041181;28;20067;-73
2024/01/21 01:30:00;;;;;;;10.65;5.40;;;-1.40;99.90;;;;;;5063054;28;20418;-74
2024/01/21 01:32:26;;;;;;;12.00;5.18;;;-1.50;99.90;;;;;;5039955;28;20079;-73
2024/01/21 01:34:54;;;;;;;10.48;5.30;;;-1.50;99.90;;;;;;5054167;28;20123;-74
2024/01/21 01:37:23;;;;;;;12.88;5.22;;;-1.50;99.90;;;;;;5046966;28;20043;-74
2024/01/21 01:39:49;;;;;;;12.50;4.90;;;-1.50;99.90;;;;;;5050066;28;20535;-73
2024/01/21 01:42:14;;;;;;;10.57;5.55;;;-1.60;99.90;;;;;;5052009;28;20050;-74
2024/01/21 01:44:40;;;;;;;13.60;5.75;;;-1.60;99.90;;;;;;5044271;28;20045;-74
2024/01/21 01:47:10;;;;;;;17.83;7.38;;;-1.70;99.90;;;;;;5049994;28;20025;-73
2024/01/21 01:49:41;;;;;;;13.95;5.85;;;-1.70;99.90;;;;;;5051949;28;20043;-74
2024/01/21 01:52:10;;;;;;;12.83;5.83;;;-1.70;99.90;;;;;;5047232;28;20589;-73
2024/01/21 01:54:39;;;;;;;10.98;5.32;;;-1.70;99.90;;;;;;5057408;28;20149;-74
2024/01/21 01:57:07;;;;;;;11.25;4.82;;;-1.70;99.90;;;;;;5065138;28;20059;-74
2024/01/21 01:59:33;;;;;;;12.20;5.32;;;-1.70;99.90;;;;;;5059031;28;20032;-74
2024/01/21 02:02:00;;;;;;;12.95;5.45;;;-1.70;99.90;;;;;;5046960;28;20504;-74
2024/01/21 02:04:25;;;;;;;10.32;4.88;;;-1.60;99.90;;;;;;5049202;28;20037;-74
2024/01/21 02:06:52;;;;;;;10.05;5.03;;;-1.60;99.90;;;;;;5072670;28;20020;-74
2024/01/21 02:09:18;;;;;;;10.55;5.00;;;-1.60;99.90;;;;;;5069111;28;20021;-74
2024/01/21 02:11:43;;;;;;;12.10;4.85;;;-1.60;99.90;;;;;;5046978;28;20028;-74
2024/01/21 02:14:12;;;;;;;12.23;4.57;;;-1.60;99.90;;;;;;5056250;28;20033;-74
2024/01/21 02:16:38;;;;;;;9.65;3.78;;;-1.50;99.90;;;;;;5060168;28;20432;-74
2024/01/21 02:19:10;;;;;;;9.35;4.20;;;-1.50;99.90;;;;;;5042506;28;20060;-74
2024/01/21 02:21:36;;;;;;;;;;;-1.50;99.90;;;;;;5045495;28;20413;-73
2024/01/21 02:24:02;;;;;;;13.70;3.90;;;-1.40;99.90;;;;;;5048052;28;19992;-74
2024/01/21 02:26:28;;;;;;;12.00;4.22;;;-1.50;99.90;;;;;;5042238;28;20393;-74
2024/01/21 02:28:53;;;;;;;9.93;4.22;;;-1.50;99.90;;;;;;5041694;28;20113;-74
2024/01/21 02:31:19;;;;;;;8.40;3.80;;;-1.50;99.90;;;;;;5037110;28;20106;-74
2024/01/21 02:33:44;;;;;;;10.35;4.38;;;-1.50;99.90;;;;;;5045276;28;20028;-74
2024/01/21 02:36:10;;;;;;;10.77;4.00;;;-1.50;99.90;;;;;;5043204;28;20087;-73
2024/01/21 02:38:35;;;;;;;8.98;3.40;;;-1.50;99.90;;;;;;5053193;28;20032;-74
2024/01/21 02:41:01;;;;;;;12.02;3.55;;;-1.50;99.90;;;;;;5042324;28;20025;-74
2024/01/21 02:43:27;;;;;;;10.93;3.63;;;-1.40;99.90;;;;;;5054209;28;20027;-74
2024/01/21 02:45:52;;;;;;;9.23;4.22;;;-1.40;99.90;;;;;;5060834;28;20388;-74
2024/01/21 02:48:19;;;;;;;8.82;3.70;;;-1.40;99.90;;;;;;5050967;28;20039;-74
2024/01/21 02:50:44;;;;;;;7.70;3.20;;;-1.40;99.90;;;;;;5050623;28;20016;-73
2024/01/21 02:53:10;;;;;;;7.35;3.65;;;-1.30;99.90;;;;;;5049573;28;20081;-73
2024/01/21 02:55:35;;;;;;;9.38;3.45;;;-1.30;99.90;;;;;;5041842;28;20096;-73
2024/01/21 02:58:01;;;;;;;7.50;3.20;;;-1.20;99.90;;;;;;5039851;28;20033;-74
2024/01/21 03:00:26;;;;;;;8.13;3.08;;;-1.20;99.90;;;;;;5037977;28;20034;-74
2024/01/21 03:02:52;;;;;;;6.88;3.10;;;-1.10;99.90;;;;;;5058189;28;20029;-74
2024/01/21 03:05:18;;;;;;;8.15;3.30;;;-1.10;99.90;;;;;;5039719;28;20109;-74
2024/01/21 03:07:43;;;;;;;6.75;2.85;;;-1.00;99.90;;;;;;5033105;28;20026;-74
2024/01/21 03:10:09;;;;;;;6.78;3.20;;;-1.00;99.90;;;;;;5052297;28;20028;-75
2024/01/21 03:12:36;;;;;;;7.10;3.42;;;-1.00;99.90;;;;;;5043804;28;20042;-73
2024/01/21 03:15:03;;;;;;;8.95;3.33;;;-0.90;99.90;;;;;;5046972;28;20507;-73
2024/01/21 03:17:29;;;;;;;7.38;2.45;;;-0.90;99.90;;;;;;5046440;28;20019;-73
2024/01/21 03:19:55;;;;;;;6.90;2.65;;;-0.90;99.90;;;;;;5049665;28;20021;-73
2024/01/21 03:22:20;;;;;;;8.02;3.45;;;-0.80;99.90;;;;;;5046739;28;20113;-74
2024/01/21 03:24:46;;;;;;;7.07;2.92;;;-0.80;99.90;;;;;;5052206;28;20420;-74
2024/01/21 03:27:13;;;;;;;7.25;2.90;;;-0.80;99.90;;;;;;5035004;28;20053;-74
2024/01/21 03:29:39;;;;;;;6.72;2.50;;;-0.80;99.90;;;;;;5038656;28;20103;-74
2024/01/21 03:32:05;;;;;;;8.90;2.67;;;-0.80;99.90;;;;;;5038968;28;20121;-74
2024/01/21 03:34:30;;;;;;;7.40;2.30;;;-0.90;99.90;;;;;;5045369;28;20041;-74
2024/01/21 03:36:56;;;;;;;6.63;2.78;;;-0.80;99.90;;;;;;5055450;28;20464;-74
2024/01/21 03:39:21;;;;;;;7.05;2.65;;;-0.90;99.90;;;;;;5037110;28;20079;-73
2024/01/21 03:41:47;;;;;;;5.57;2.40;;;-0.80;99.90;;;;;;5037065;28;20056;-74
2024/01/21 03:44:13;;;;;;;6.43;2.65;;;-0.80;99.90;;;;;;5048598;28;20049;-74
2024/01/21 03:46:39;;;;;;;5.68;2.22;;;-0.80;99.90;;;;;;5041365;28;21915;-74
2024/01/21 03:49:04;;;;;;;4.90;1.83;;;-0.70;99.90;;;;;;5034594;28;20029;-73
2024/01/21 03:51:30;;;;;;;6.30;2.67;;;-0.70;99.90;;;;;;5039352;28;20439;-74
2024/01/21 03:53:56;;;;;;;5.40;1.92;;;-0.70;99.90;;;;;;5038834;28;20033;-74
2024/01/21 03:56:21;;;;;;;7.00;2.20;;;-0.70;99.90;;;;;;5036574;28;20032;-74
2024/01/21 03:58:47;;;;;;;5.05;1.85;;;-0.70;99.90;;;;;;5046066;28;20534;-73
2024/01/21 04:01:13;;;;;;;4.20;1.60;;;-0.70;99.90;;;;;;5044282;28;20025;-73
2024/01/21 04:03:38;;;;;;;6.97;2.38;;;-0.70;99.90;;;;;;5039471;28;20032;-74
2024/01/21 04:06:04;;;;;;;4.97;1.67;;;-0.70;99.90;;;;;;5052263;28;20047;-74
2024/01/21 04:08:30;;;;;;;4.13;1.92;;;-0.70;99.90;;;;;;5057749;28;20032;-74
2024/01/21 04:10:55;;;;;;;6.25;2.33;;;-0.70;99.90;;;;;;5045741;28;20033;-74
2024/01/21 04:13:21;;;;;;;4.63;1.63;;;-0.60;99.90;;;;;;5048095;28;20124;-74
2024/01/21 04:15:47;;;;;;;4.78;1.88;;;-0.60;99.90;;;;;;5047639;28;20063;-74
2024/01/21 04:18:13;;;;;;;4.97;2.47;;;-0.60;99.90;;;;;;5041079;28;20029;-74
2024/01/21 04:20:38;;;;;;;5.97;2.25;;;-0.70;99.90;;;;;;5035810;28;20024;-74
2024/01/21 04:23:04;;;;;;;5.70;1.70;;;-0.60;99.90;;;;;;5036007;28;20036;-74
2024/01/21 04:25:30;;;;;;;6.03;1.92;;;-0.70;99.90;;;;;;5049854;28;20578;-74
2024/01/21 04:27:55;;;;;;;4.18;1.70;;;-0.70;99.90;;;;;;5030191;28;20109;-74
2024/01/21 04:30:21;;;;;;;5.90;1.70;;;-0.70;99.90;;;;;;5034796;28;20040;-73
2024/01/21 04:32:47;;;;;;;5.45;1.67;;;-0.60;99.90;;;;;;5045156;28;20481;-74
2024/01/21 04:35:13;;;;;;;4.97;1.65;;;-0.60;99.90;;;;;;5048929;28;20040;-74
2024/01/21 04:37:39;;;;;;;5.05;1.77;;;-0.60;99.90;;;;;;5047679;28;20025;-73
2024/01/21 04:40:05;;;;;;;5.30;1.88;;;-0.50;99.90;;;;;;5050339;28;20032;-73
2024/01/21 04:42:31;;;;;;;4.40;1.55;;;-0.50;99.90;;;;;;5048839;28;20112;-74
2024/01/21 04:44:56;;;;;;;5.00;1.60;;;-0.40;99.90;;;;;;5059852;28;20186;-73
2024/01/21 04:47:22;;;;;;;3.47;1.25;;;-0.30;99.90;;;;;;5050838;28;20036;-73
2024/01/21 04:49:48;;;;;;;5.50;1.67;;;-0.20;99.90;;;;;;5052513;28;20091;-74
2024/01/21 04:52:14;;;;;;;4.55;1.80;;;-0.20;99.90;;;;;;5046356;28;20070;-74
2024/01/21 04:54:39;;;;;;;6.03;1.80;;;-0.10;99.90;;;;;;5055973;28;20388;-73
2024/01/21 04:57:05;;;;;;;4.22;1.45;;;0.00;99.90;;;;;;5070234;28;20025;-73
2024/01/21 04:59:31;;;;;;;5.05;1.65;;;0.00;99.90;;;;;;5051326;28;20554;-74
2024/01/21 05:01:56;;;;;;;5.63;1.83;;;0.10;99.90;;;;;;5043971;28;20108;-74
2024/01/21 05:04:22;;;;;;;3.92;1.58;;;0.10;99.90;;;;;;5042155;28;20036;-74
2024/01/21 05:06:48;;;;;;;4.28;1.75;;;0.20;99.90;;;;;;5033790;28;20082;-74
2024/01/21 05:09:13;;;;;;;6.47;1.90;;;0.20;99.90;;;;;;5070418;28;20021;-74
2024/01/21 05:11:39;;;;;;;4.72;1.73;;;0.30;99.90;;;;;;5045644;28;20047;-74
2024/01/21 05:14:04;;;;;;;3.40;1.40;;;0.30;99.90;;;;;;5049853;28;20033;-74
2024/01/21 05:16:30;;;;;;;5.80;2.10;;;0.40;99.90;;;;;;5052460;28;20043;-74
2024/01/21 05:18:56;;;;;;;4.53;1.60;;;0.40;99.90;;;;;;5049633;28;20025;-74
2024/01/21 05:21:22;;;;;;;5.13;1.85;;;0.40;99.90;;;;;;5052401;28;20397;-74
2024/01/21 05:23:51;;;;;;;6.82;2.65;;;0.40;99.90;;;;;;5033282;28;20021;-73
2024/01/21 05:26:17;;;;;;;5.68;1.95;;;0.40;99.90;;;;;;5036191;28;20564;-74
2024/01/21 05:28:44;;;;;;;4.38;2.08;;;0.40;99.90;;;;;;5029927;28;20124;-73
2024/01/21 05:31:10;;;;;;;3.33;1.35;;;0.50;99.90;;;;;;5044714;28;20380;-74
2024/01/21 05:33:35;;;;;;;5.93;2.20;;;0.50;99.90;;;;;;5038082;28;20022;-73
2024/01/21 05:36:01;;;;;;;4.43;1.73;;;0.50;99.90;;;;;;5039140;28;20068;-74
2024/01/21 05:38:26;;;;;;;5.80;1.95;;;0.50;99.90;;;;;;5045742;28;20025;-73
2024/01/21 05:40:52;;;;;;;6.15;2.40;;;0.50;99.90;;;;;;5043192;28;20424;-73
2024/01/21 05:43:18;;;;;;;5.35;2.03;;;0.50;99.90;;;;;;5033462;28;20025;-74
2024/01/21 05:45:44;;;;;;;5.28;1.95;;;0.60;99.90;;;;;;5035047;28;20511;-74
2024/01/21 05:48:09;;;;;;;6.00;2.90;;;0.60;99.90;;;;;;5051521;28;20048;-74
2024/01/21 05:50:35;;;;;;;5.63;2.47;;;0.60;99.90;;;;;;5045034;28;20489;-74
2024/01/21 05:53:00;;;;;;;4.97;2.40;;;0.60;99.90;;;;;;5035050;28;20033;-74
2024/01/21 05:55:26;;;;;;;6.00;2.53;;;0.60;99.90;;;;;;5034975;28;20033;-74
2024/01/21 05:57:52;;;;;;;7.00;2.42;;;0.60;99.90;;;;;;5033325;28;20029;-74
2024/01/21 06:00:17;;;;;;;5.32;2.40;;;0.60;99.90;;;;;;5038254;28;20033;-74
2024/01/21 06:02:44;;;;;;;7.10;2.47;;;0.60;99.90;;;;;;5050955;28;20100;-73
2024/01/21 06:05:10;;;;;;;7.90;2.63;;;0.70;99.90;;;;;;5046633;28;20021;-74
2024/01/21 06:07:35;;;;;;;6.68;2.70;;;0.60;99.90;;;;;;5033306;28;20032;-74
2024/01/21 06:10:01;;;;;;;5.93;2.72;;;0.60;99.90;;;;;;5046770;28;20029;-74
2024/01/21 06:12:27;;;;;;;7.38;3.20;;;0.60;99.90;;;;;;5037853;28;20057;-73
2024/01/21 06:14:53;;;;;;;8.70;3.33;;;0.70;99.90;;;;;;5038343;28;20482;-74
2024/01/21 06:17:18;;;;;;;7.35;2.85;;;0.80;99.90;;;;;;5040371;28;20216;-74
2024/01/21 06:19:44;;;;;;;6.60;2.60;;;0.70;99.90;;;;;;5034515;28;20026;-73
2024/01/21 06:22:10;;;;;;;8.45;3.00;;;0.80;99.90;;;;;;5040976;28;20037;-73
2024/01/21 06:24:36;;;;;;;9.63;3.50;;;0.90;99.90;;;;;;5032835;28;20474;-73
2024/01/21 06:27:03;;;;;;;9.48;3.67;;;0.90;99.90;;;;;;5041575;28;20030;-73
2024/01/21 06:29:28;;;;;;;9.05;3.28;;;1.00;99.90;;;;;;5036462;28;20107;-73
2024/01/21 06:31:55;;;;;;;9.73;3.70;;;1.10;99.90;;;;;;5039103;28;20100;-73
2024/01/21 06:34:20;;;;;;;7.80;3.45;;;1.20;99.90;;;;;;5038623;28;20044;-73
2024/01/21 06:36:46;;;;;;;9.55;3.35;;;1.20;99.90;;;;;;5036954;28;20025;-73
2024/01/21 06:39:11;;;;;;;8.07;3.90;;;1.30;99.90;;;;;;5044120;28;20104;-73
2024/01/21 06:41:38;;;;;;;9.77;4.45;;;1.50;99.90;;;;;;5058859;28;20012;-73
2024/01/21 06:44:03;;;;;;;6.43;3.17;;;1.60;99.90;;;;;;5034641;28;20064;-73
2024/01/21 06:46:32;;;;;;;7.68;4.10;;;1.70;99.90;;;;;;5050569;28;20029;-74
2024/01/21 06:48:59;;;;;;;6.90;3.30;;;1.70;99.90;;;;;;5035993;28;20029;-74
2024/01/21 06:51:57;;;;;;;9.48;3.80;;;1.70;99.90;;;;;;5044059;28;20032;-73
2024/01/21 06:54:16;;;;;;;8.43;3.42;;;1.70;99.90;;;;;;5055588;28;20045;-74
2024/01/21 06:56:43;;;;;;;6.63;3.40;;;1.80;99.90;;;;;;5053445;28;20358;-74
2024/01/21 06:59:08;;;;;;;7.05;3.47;;;1.80;99.90;;;;;;5034604;28;20032;-74
2024/01/21 07:01:34;;;;;;;7.55;3.30;;;1.90;99.90;;;;;;5033087;28;20029;-74
2024/01/21 07:04:00;;;;;;;9.18;4.25;;;1.90;99.90;;;;;;5036499;28;20497;-74
2024/01/21 07:06:26;;;;;;;8.02;3.80;;;1.90;99.90;;;;;;5041690;28;20053;-74
2024/01/21 07:08:55;;;;;;;8.90;3.47;;;1.90;99.90;;;;;;5042721;28;20044;-76
2024/01/21 07:11:21;;;;;;;8.98;3.85;;;2.00;99.90;;;;;;5043327;28;20025;-75
2024/01/21 07:13:47;;;;;;;6.40;2.88;;;2.00;99.90;;;;;;5044971;28;20044;-75
2024/01/21 07:16:13;;;;;;;9.18;3.67;;;2.00;99.90;;;;;;5068837;28;20091;-75
2024/01/21 07:18:38;;;;;;;8.98;3.40;;;1.90;99.90;;;;;;5043921;28;20029;-75
2024/01/21 07:21:04;;;;;;;8.10;4.07;;;1.90;99.90;;;;;;5032722;28;20033;-75
2024/01/21 07:23:30;;;;;;;8.95;3.67;;;1.90;99.90;;;;;;5055569;28;20086;-75
2024/01/21 07:25:56;;;;;;;8.13;3.60;;;1.90;99.90;;;;;;5055011;28;20028;-74
2024/01/21 07:28:22;;;;;;;6.93;3.25;;;1.90;99.90;;;;;;5052255;28;20082;-73
2024/01/21 07:30:48;;;;;;;9.20;3.92;;;2.00;99.90;;;;;;5040875;28;20041;-73
2024/01/21 07:33:13;;;;;;;8.40;3.28;;;2.00;99.90;;;;;;5040359;28;20134;-74
2024/01/21 07:35:39;;;;;;;7.80;3.28;;;2.00;99.90;;;;;;5039887;28;20424;-73
2024/01/21 07:38:05;;;;;;;9.43;3.58;;;2.10;99.90;;;;;;5034858;28;20018;-73
2024/01/21 07:40:31;;;;;;;8.43;3.70;;;2.00;99.90;;;;;;5034295;28;20037;-73
2024/01/21 07:42:57;;;;;;;8.18;4.03;;;2.00;99.90;;;;;;5037938;28;20075;-74
2024/01/21 07:45:23;;;;;;;7.32;3.42;;;2.00;99.90;;;;;;5031383;28;20409;-74
2024/01/21 07:47:50;;;;;;;9.77;4.25;;;2.00;99.90;;;;;;5035278;28;20021;-74
2024/01/21 07:50:16;;;;;;;9.38;3.75;;;2.00;99.90;;;;;;5045418;28;20056;-73
2024/01/21 07:52:43;;;;;;;8.15;3.53;;;2.00;99.90;;;;;;5031436;28;20110;-74
2024/01/21 07:55:08;;;;;;;8.57;3.40;;;1.90;99.90;;;;;;5047439;28;20131;-73
2024/01/21 07:57:34;;;;;;;9.95;4.03;;;2.00;99.90;;;;;;5035427;28;20171;-73
2024/01/21 08:00:00;;;;;;;9.65;3.47;;;2.00;99.90;;;;;;5043730;28;20045;-73
2024/01/21 08:02:27;;;;;;;9.13;3.97;;;2.00;99.90;;;;;;5045066;28;20115;-73
2024/01/21 08:04:53;;;;;;;7.25;3.40;;;2.10;99.90;;;;;;5050518;28;20046;-73
2024/01/21 08:07:19;;;;;;;7.85;3.40;;;2.10;99.90;;;;;;5051089;28;20032;-73
2024/01/21 08:09:44;;;;;;;8.27;3.78;;;2.10;99.90;;;;;;5048694;28;20064;-73
2024/01/21 08:12:10;;;;;;;7.28;3.08;;;2.10;99.90;;;;;;5041722;28;20036;-73
2024/01/21 08:14:35;;;;;;;7.57;3.22;;;2.10;99.90;;;;;;5037860;28;20040;-73
2024/01/21 08:17:02;;;;;;;7.50;2.97;;;2.10;99.90;;;;;;5042458;28;20060;-73
2024/01/21 08:19:28;;;;;;;8.73;3.92;;;2.20;99.90;;;;;;5042136;28;20036;-73
2024/01/21 08:21:53;;;;;;;8.20;3.10;;;2.20;99.90;;;;;;5041551;28;20025;-74
2024/01/21 08:24:19;;;;;;;8.38;3.90;;;2.30;99.90;;;;;;5059283;28;20033;-73
2024/01/21 08:26:45;;;;;;;4.82;2.85;;;2.30;99.90;;;;;;5056503;28;20029;-73
2024/01/21 08:29:11;;;;;;;8.25;3.60;;;2.30;99.90;;;;;;5059833;28;20132;-73
2024/01/21 08:31:44;;;;;;;6.45;3.28;;;2.40;99.90;;;;;;5028084;28;20079;-73
2024/01/21 08:34:11;;;;;;;7.10;3.33;;;2.40;99.90;;;;;;5039103;28;20081;-73
2024/01/21 08:36:37;;;;;;;7.55;3.47;;;2.40;99.90;;;;;;5035536;28;20106;-73
2024/01/21 08:39:06;;;;;;;7.68;3.20;;;2.50;99.90;;;;;;5039024;28;20024;-73
2024/01/21 08:41:35;;;;;;;5.75;2.72;;;2.50;99.90;;;;;;5030933;28;20945;-72
2024/01/21 08:44:02;;;;;;;9.23;3.65;;;2.50;99.90;;;;;;5039709;28;20496;-72
2024/01/21 08:46:28;;;;;;;6.97;3.15;;;2.60;99.90;;;;;;5039808;28;20026;-72
2024/01/21 08:48:53;;;;;;;6.95;3.78;;;2.60;99.90;;;;;;5049455;28;20078;-73
2024/01/21 08:51:19;;;;;;;6.40;3.05;;;2.70;99.90;;;;;;5045276;28;20074;-74
2024/01/21 08:53:45;;;;;;;8.93;3.55;;;2.70;99.90;;;;;;5037537;28;20036;-73
2024/01/21 08:56:10;;;;;;;6.35;2.70;;;2.70;99.90;;;;;;5032148;28;20052;-73
2024/01/21 08:58:36;;;;;;;6.68;3.17;;;2.70;99.90;;;;;;5045911;28;20496;-73
2024/01/21 09:01:01;;;;;;;7.25;3.50;;;2.80;99.90;;;;;;5036423;28;20358;-73
2024/01/21 09:03:27;;;;;;;7.35;3.08;;;2.90;99.90;;;;;;5040374;28;20036;-74
2024/01/21 09:05:53;;;;;;;6.00;3.13;;;3.00;99.90;;;;;;5036181;28;20025;-74
2024/01/21 09:08:18;;;;;;;6.90;3.78;;;3.00;99.90;;;;;;5034684;28;20106;-73
2024/01/21 09:10:44;;;;;;;7.95;3.17;;;3.10;99.90;;;;;;5045533;28;20017;-73
2024/01/21 09:13:10;;;;;;;7.18;3.50;;;3.10;99.90;;;;;;5047607;28;20029;-73
2024/01/21 09:15:36;;;;;;;7.63;3.38;;;3.10;99.90;;;;;;5037345;28;20413;-73
2024/01/21 09:18:01;;;;;;;8.02;3.08;;;3.20;99.90;;;;;;5050168;28;20033;-73
2024/01/21 09:20:27;;;;;;;9.95;3.75;;;3.20;99.90;;;;;;5035148;28;20124;-73
2024/01/21 09:22:52;;;;;;;7.47;3.20;;;3.20;99.90;;;;;;5041261;28;20021;-73
2024/01/21 09:25:18;;;;;;;7.80;3.20;;;3.10;99.90;;;;;;5050062;28;20029;-73
2024/01/21 09:27:44;;;;;;;6.47;3.00;;;3.10;99.90;;;;;;5035223;28;20033;-73
2024/01/21 09:30:10;;;;;;;8.20;3.72;;;3.10;99.90;;;;;;5039889;28;20028;-73
2024/01/21 09:32:35;;;;;;;9.35;3.53;;;3.10;99.90;;;;;;5050343;28;20090;-73
2024/01/21 09:35:01;;;;;;;5.90;2.85;;;3.10;99.90;;;;;;5046957;28;20041;-73
2024/01/21 09:37:26;;;;;;;7.05;3.20;;;3.20;99.90;;;;;;5045243;28;20049;-74
2024/01/21 09:39:52;;;;;;;7.32;3.33;;;3.10;99.90;;;;;;5038644;28;20037;-75
2024/01/21 09:42:18;;;;;;;7.00;3.67;;;3.20;99.90;;;;;;5046767;28;20066;-74
2024/01/21 09:44:45;;;;;;;8.15;3.90;;;3.20;99.90;;;;;;5053122;28;20064;-74
2024/01/21 09:47:12;;;;;;;9.18;3.63;;;3.20;99.90;;;;;;5046757;28;20374;-73
2024/01/21 09:49:38;;;;;;;7.53;3.00;;;3.20;99.90;;;;;;5032103;28;20029;-74
2024/01/21 09:52:04;;;;;;;7.10;3.25;;;3.20;99.90;;;;;;5038724;28;20101;-74
2024/01/21 09:54:30;;;;;;;5.03;2.90;;;3.20;99.90;;;;;;5045174;28;20044;-74
2024/01/21 09:56:56;;;;;;;6.90;3.60;;;3.20;99.90;;;;;;5036826;28;20021;-74
2024/01/21 09:59:22;;;;;;;6.85;3.60;;;3.20;99.90;;;;;;5032391;28;20413;-74
2024/01/21 10:01:48;;;;;;;7.55;3.50;;;3.20;99.90;;;;;;5033101;28;20359;-74
2024/01/21 10:04:14;;;;;;;8.20;4.00;;;3.30;99.90;;;;;;5039353;28;20117;-74
2024/01/21 10:06:40;;;;;;;7.25;3.30;;;3.30;99.90;;;;;;5053090;28;20381;-74
2024/01/21 10:09:12;;;;;;;6.38;3.30;;;3.30;99.90;;;;;;5039205;28;20033;-74
2024/01/21 10:11:38;;;;;;;6.50;3.88;;;3.30;99.90;;;;;;5042351;28;20026;-73
2024/01/21 10:14:03;;;;;;;7.63;3.60;;;3.30;99.90;;;;;;5034773;28;20029;-74
2024/01/21 10:16:29;;;;;;;8.10;3.30;;;3.30;99.90;;;;;;5038562;28;20112;-73
2024/01/21 10:18:55;;;;;;;7.45;3.72;;;3.30;99.90;;;;;;5034268;28;20021;-73
2024/01/21 10:21:20;;;;;;;9.48;3.47;;;3.30;99.90;;;;;;5035049;28;20035;-73
2024/01/21 10:23:47;;;;;;;5.70;3.55;;;3.30;99.90;;;;;;5049276;28;20100;-73
2024/01/21 10:26:12;;;;;;;8.55;4.05;;;3.40;99.90;;;;;;5041199;28;20108;-73
2024/01/21 10:28:39;;;;;;;5.78;3.42;;;3.50;99.90;;;;;;5035004;28;20107;-73
2024/01/21 10:31:08;;;;;;;8.20;3.97;;;3.50;99.90;;;;;;5041794;28;20025;-73
2024/01/21 10:33:34;;;;;;;7.68;3.88;;;3.50;99.90;;;;;;5043943;28;20023;-77
2024/01/21 10:36:03;;;;;;;11.35;4.20;;;3.60;99.90;;;;;;5042028;28;20041;-73
2024/01/21 10:38:32;;;;;;;6.00;3.35;;;3.60;99.90;;;;;;5041824;28;20063;-73
2024/01/21 10:41:00;;;;;;;7.90;3.78;;;3.60;99.90;;;;;;5050012;28;20060;-73
2024/01/21 10:43:27;;;;;;;6.82;3.65;;;3.70;99.90;;;;;;5038928;28;20429;-74
2024/01/21 10:45:54;;;;;;;8.98;3.72;;;3.70;99.90;;;;;;5044187;28;20029;-72
2024/01/21 10:48:20;;;;;;;9.70;4.45;;;3.70;99.90;;;;;;5051516;28;20044;-71
2024/01/21 10:50:50;;;;;;;7.38;3.60;;;3.70;99.90;;;;;;5048973;28;20033;-72
2024/01/21 10:53:17;;;;;;;8.52;3.90;;;3.70;99.90;;;;;;5037566;28;20017;-73
2024/01/21 10:55:44;;;;;;;8.98;4.38;;;3.70;99.90;;;;;;5042130;28;20037;-73
2024/01/21 10:58:11;;;;;;;7.30;3.80;;;3.70;99.90;;;;;;5043215;28;20014;-72
2024/01/21 11:00:37;;;;;;;6.00;3.35;;;3.80;99.90;;;;;;5045657;28;20051;-73
2024/01/21 11:03:31;;;;;;;8.02;3.85;;;3.80;99.90;;;;;;5045993;28;20424;-72
2024/01/21 11:06:03;;;;;;;6.95;3.47;;;3.80;99.90;;;;;;5044863;28;20028;-74
2024/01/21 11:08:29;;;;;;;10.00;3.85;;;3.80;99.90;;;;;;5034734;28;20074;-74
2024/01/21 11:11:22;;;;;;;7.68;3.90;;;3.80;99.90;;;;;;5030702;28;20099;-73
2024/01/21 11:13:52;;;;;;;8.32;4.22;;;3.90;99.90;;;;;;5036641;28;20036;-73
2024/01/21 11:16:29;;;;;;;7.80;3.97;;;3.90;99.90;;;;;;5035380;28;20051;-73
2024/01/21 11:18:59;;;;;;;8.68;4.25;;;4.00;99.90;;;;;;5042622;28;20033;-74
2024/01/21 11:21:29;;;;;;;6.32;3.15;;;4.00;99.90;;;;;;5041396;28;20087;-74
2024/01/21 11:24:01;;;;;;;8.02;3.85;;;4.10;99.90;;;;;;5041385;28;20489;-74
2024/01/21 11:26:29;;;;;;;9.02;3.97;;;4.10;99.90;;;;;;5042546;28;20078;-74
2024/01/21 11:29:00;;;;;;;10.52;4.43;;;4.10;99.90;;;;;;5054193;28;20043;-74
2024/01/21 11:31:26;;;;;;;11.73;4.55;;;4.20;99.90;;;;;;5045433;28;20056;-74
2024/01/21 11:34:06;;;;;;;7.65;4.07;;;4.20;99.90;;;;;;5054305;28;20031;-73
2024/01/21 11:36:37;;;;;;;9.57;4.57;;;4.10;99.90;;;;;;5039933;28;20037;-74
2024/01/21 11:39:05;;;;;;;8.85;4.38;;;4.10;99.90;;;;;;5042721;28;20040;-73
2024/01/21 11:41:41;;;;;;;8.85;3.95;;;4.10;99.90;;;;;;5037119;28;20029;-73
2024/01/21 11:44:28;;;;;;;12.50;4.57;;;4.10;99.90;;;;;;5049931;28;20047;-74
2024/01/21 11:46:56;;;;;;;8.70;4.65;;;4.10;99.90;;;;;;5035638;28;20075;-74
2024/01/21 11:49:23;;;;;;;10.02;4.85;;;4.10;99.90;;;;;;5035932;28;20026;-74
2024/01/21 11:51:49;;;;;;;8.40;5.00;;;4.10;99.90;;;;;;5035222;28;20029;-74
2024/01/21 11:54:16;;;;;;;8.35;4.80;;;4.10;99.90;;;;;;5042194;28;20029;-74
2024/01/21 11:56:42;;;;;;;7.65;3.97;;;4.10;99.90;;;;;;5039665;28;20025;-73
2024/01/21 11:59:10;;;;;;;7.93;4.45;;;4.20;99.90;;;;;;5049479;28;20033;-73
2024/01/21 12:01:37;;;;;;;10.48;4.60;;;4.20;99.90;;;;;;5036983;28;20032;-73
2024/01/21 12:04:07;;;;;;;8.88;4.18;;;4.20;99.90;;;;;;5048910;28;20051;-74
2024/01/21 12:06:47;;;;;;;7.53;3.78;;;4.20;99.90;;;;;;5028577;28;20524;-73
2024/01/21 12:09:14;;;;;;;8.32;4.45;;;4.30;99.90;;;;;;5038467;28;20024;-73
2024/01/21 12:11:40;;;;;;;9.05;4.30;;;4.40;99.90;;;;;;5042969;28;20021;-73
2024/01/21 12:14:14;;;;;;;9.50;4.35;;;4.30;99.90;;;;;;5038385;28;20048;-73
2024/01/21 12:16:41;;;;;;;8.70;4.45;;;4.40;99.90;;;;;;5035949;28;20025;-73
2024/01/21 12:19:07;;;;;;;8.32;4.18;;;4.40;99.90;;;;;;5032355;28;20068;-73
2024/01/21 12:21:33;;;;;;;11.45;4.20;;;4.50;99.90;;;;;;5033561;28;20433;-73
2024/01/21 12:24:04;;;;;;;9.60;4.68;;;4.40;99.90;;;;;;5046259;28;20025;-73
2024/01/21 12:26:30;;;;;;;7.60;4.18;;;4.50;99.90;;;;;;5042120;28;20720;-74
2024/01/21 12:29:04;;;;;;;9.88;5.38;;;4.50;99.90;;;;;;5036651;28;20448;-75
2024/01/21 12:31:31;;;;;;;8.40;3.90;;;4.50;99.90;;;;;;5043626;28;20027;-74
2024/01/21 12:33:58;;;;;;;9.05;4.15;;;4.60;99.90;;;;;;5035985;28;20026;-74
2024/01/21 12:36:23;;;;;;;8.45;4.53;;;4.60;99.90;;;;;;5041656;28;20037;-74
2024/01/21 12:38:50;;;;;;;7.43;4.00;;;4.60;99.90;;;;;;5046049;28;20099;-74
2024/01/21 12:41:17;;;;;;;9.13;4.32;;;4.60;99.90;;;;;;5043452;28;20037;-74
2024/01/21 12:43:43;;;;;;;10.02;4.70;;;4.60;99.90;;;;;;5035000;28;20045;-74
2024/01/21 12:46:12;;;;;;;8.82;4.72;;;4.70;99.90;;;;;;5044134;28;23496;-74
2024/01/21 12:48:38;;;;;;;10.23;4.85;;;4.70;99.90;;;;;;5042366;28;20025;-74